sensor_id;sensor_type;location;lat;lon;timestamp;P1;durP1;ratioP1;P2;durP2;ratioP2
7211;SDS011;3647;48.792;9.802;2024-03-06T06:49:58;18.23;;;11.87;;
7211;SDS011;3647;48.792;9.802;2024-03-06T06:52:25;17.10;;;11.57;;
7211;SDS011;3647;48.792;9.802;2024-03-06T06:54:52;16.73;;;11.03;;
7211;SDS011;3647;48.792;9.802;2024-03-06T06:57:20;20.07;;;11.57;;
7211;SDS011;3647;48.792;9.802;2024-03-06T06:59:47;18.50;;;12.07;;
7211;SDS011;3647;48.792;9.802;2024-03-06T07:02:14;21.83;;;12.73;;
7211;SDS011;3647;48.792;9.802;2024-03-06T07:04:42;20.30;;;13.20;;
7211;SDS011;3647;48.792;9.802;2024-03-06T07:07:10;16.73;;;11.37;;
7211;SDS011;3647;48.792;9.802;2024-03-06T07:09:38;18.53;;;12.13;;
7211;SDS011;3647;48.792;9.802;2024-03-06T07:12:06;19.13;;;12.10;;
7211;SDS011;3647;48.792;9.802;2024-03-06T07:14:33;17.10;;;11.30;;
7211;SDS011;3647;48.792;9.802;2024-03-06T07:17:00;17.77;;;11.47;;
7211;SDS011;3647;48.792;9.802;2024-03-06T07:19:27;14.87;;;11.10;;
7211;SDS011;3647;48.792;9.802;2024-03-06T07:21:54;16.67;;;10.67;;
7211;SDS011;3647;48.792;9.802;2024-03-06T07:24:23;15.00;;;11.23;;
7211;SDS011;3647;48.792;9.802;2024-03-06T07:26:50;14.80;;;10.80;;
7211;SDS011;3647;48.792;9.802;2024-03-06T07:29:17;15.53;;;10.77;;
7211;SDS011;3647;48.792;9.802;2024-03-06T07:31:44;17.07;;;11.33;;
7211;SDS011;3647;48.792;9.802;2024-03-06T07:34:11;17.47;;;11.20;;
7211;SDS011;3647;48.792;9.802;2024-03-06T07:36:39;17.20;;;11.07;;
7211;SDS011;3647;48.792;9.802;2024-03-06T07:39:06;16.63;;;12.10;;
7211;SDS011;3647;48.792;9.802;2024-03-06T07:41:35;19.93;;;11.03;;
7211;SDS011;3647;48.792;9.802;2024-03-06T07:44:02;18.53;;;12.00;;
7211;SDS011;3647;48.792;9.802;2024-03-06T07:46:29;17.27;;;11.10;;
7211;SDS011;3647;48.792;9.802;2024-03-06T07:48:56;15.83;;;11.27;;
7211;SDS011;3647;48.792;9.802;2024-03-06T07:51:23;18.20;;;11.20;;
7211;SDS011;3647;48.792;9.802;2024-03-06T07:53:50;16.23;;;10.93;;
7211;SDS011;3647;48.792;9.802;2024-03-06T07:56:17;16.23;;;11.20;;
7211;SDS011;3647;48.792;9.802;2024-03-06T07:58:46;14.33;;;10.63;;
7211;SDS011;3647;48.792;9.802;2024-03-06T08:01:13;15.67;;;10.83;;
7211;SDS011;3647;48.792;9.802;2024-03-06T08:03:40;18.73;;;12.20;;
7211;SDS011;3647;48.792;9.802;2024-03-06T08:06:08;16.50;;;10.97;;
7211;SDS011;3647;48.792;9.802;2024-03-06T08:08:35;16.93;;;11.23;;
7211;SDS011;3647;48.792;9.802;2024-03-06T08:11:02;16.50;;;11.10;;
7211;SDS011;3647;48.792;9.802;2024-03-06T08:13:30;17.83;;;11.90;;
7211;SDS011;3647;48.792;9.802;2024-03-06T08:15:58;16.03;;;11.23;;
7211;SDS011;3647;48.792;9.802;2024-03-06T08:18:25;16.80;;;11.63;;
7211;SDS011;3647;48.792;9.802;2024-03-06T08:20:52;19.33;;;13.00;;
7211;SDS011;3647;48.792;9.802;2024-03-06T08:23:19;19.47;;;11.30;;
7211;SDS011;3647;48.792;9.802;2024-03-06T08:25:46;20.73;;;11.87;;
7211;SDS011;3647;48.792;9.802;2024-03-06T08:28:13;18.10;;;11.50;;
7211;SDS011;3647;48.792;9.802;2024-03-06T08:30:40;19.30;;;11.47;;
7211;SDS011;3647;48.792;9.802;2024-03-06T08:33:10;20.23;;;12.20;;
7211;SDS011;3647;48.792;9.802;2024-03-06T08:35:37;15.40;;;11.13;;
7211;SDS011;3647;48.792;9.802;2024-03-06T08:38:05;17.90;;;11.63;;
7211;SDS011;3647;48.792;9.802;2024-03-06T08:40:32;16.17;;;10.87;;
7211;SDS011;3647;48.792;9.802;2024-03-06T08:43:00;17.97;;;11.20;;
7211;SDS011;3647;48.792;9.802;2024-03-06T08:45:27;17.63;;;10.87;;
7211;SDS011;3647;48.792;9.802;2024-03-06T08:47:54;18.93;;;12.80;;
7211;SDS011;3647;48.792;9.802;2024-03-06T08:50:23;17.67;;;12.03;;
7211;SDS011;3647;48.792;9.802;2024-03-06T08:52:51;20.00;;;11.47;;
7211;SDS011;3647;48.792;9.802;2024-03-06T08:55:18;18.40;;;11.80;;
7211;SDS011;3647;48.792;9.802;2024-03-06T08:57:45;21.83;;;14.00;;
7211;SDS011;3647;48.792;9.802;2024-03-06T09:00:12;18.50;;;10.97;;
7211;SDS011;3647;48.792;9.802;2024-03-06T09:02:40;17.00;;;11.00;;
7211;SDS011;3647;48.792;9.802;2024-03-06T09:05:07;15.77;;;9.77;;
7211;SDS011;3647;48.792;9.802;2024-03-06T09:07:38;21.77;;;11.37;;
7211;SDS011;3647;48.792;9.802;2024-03-06T09:10:06;17.60;;;10.37;;
7211;SDS011;3647;48.792;9.802;2024-03-06T09:12:34;17.37;;;10.40;;
7211;SDS011;3647;48.792;9.802;2024-03-06T09:15:02;17.40;;;10.50;;
7211;SDS011;3647;48.792;9.802;2024-03-06T09:17:32;16.73;;;10.57;;
7211;SDS011;3647;48.792;9.802;2024-03-06T09:19:59;19.13;;;11.03;;
7211;SDS011;3647;48.792;9.802;2024-03-06T09:22:34;17.40;;;10.83;;
7211;SDS011;3647;48.792;9.802;2024-03-06T09:25:04;15.07;;;11.00;;
7211;SDS011;3647;48.792;9.802;2024-03-06T09:27:32;14.87;;;10.20;;
7211;SDS011;3647;48.792;9.802;2024-03-06T09:29:59;16.97;;;10.40;;
7211;SDS011;3647;48.792;9.802;2024-03-06T09:32:26;16.67;;;11.23;;
7211;SDS011;3647;48.792;9.802;2024-03-06T09:34:53;17.63;;;11.83;;
7211;SDS011;3647;48.792;9.802;2024-03-06T09:37:20;17.10;;;10.27;;
7211;SDS011;3647;48.792;9.802;2024-03-06T09:39:47;16.07;;;9.67;;
7211;SDS011;3647;48.792;9.802;2024-03-06T09:42:15;16.77;;;10.73;;
7211;SDS011;3647;48.792;9.802;2024-03-06T09:44:43;15.03;;;10.87;;
7211;SDS011;3647;48.792;9.802;2024-03-06T09:47:12;14.30;;;11.10;;
7211;SDS011;3647;48.792;9.802;2024-03-06T09:49:40;15.97;;;10.53;;
7211;SDS011;3647;48.792;9.802;2024-03-06T09:52:08;17.27;;;10.70;;
7211;SDS011;3647;48.792;9.802;2024-03-06T09:54:35;13.93;;;10.33;;
7211;SDS011;3647;48.792;9.802;2024-03-06T09:57:04;12.47;;;9.07;;
7211;SDS011;3647;48.792;9.802;2024-03-06T09:59:32;15.50;;;9.57;;
7211;SDS011;3647;48.792;9.802;2024-03-06T10:02:00;14.37;;;9.53;;
7211;SDS011;3647;48.792;9.802;2024-03-06T10:04:32;16.23;;;9.70;;
7211;SDS011;3647;48.792;9.802;2024-03-06T10:07:02;14.43;;;9.77;;
7211;SDS011;3647;48.792;9.802;2024-03-06T10:09:30;14.03;;;10.30;;
7211;SDS011;3647;48.792;9.802;2024-03-06T10:11:58;15.20;;;8.93;;
7211;SDS011;3647;48.792;9.802;2024-03-06T10:14:25;15.10;;;9.37;;
7211;SDS011;3647;48.792;9.802;2024-03-06T10:16:55;14.50;;;9.33;;
7211;SDS011;3647;48.792;9.802;2024-03-06T10:19:23;15.00;;;9.73;;
7211;SDS011;3647;48.792;9.802;2024-03-06T10:21:52;15.30;;;9.80;;
7211;SDS011;3647;48.792;9.802;2024-03-06T10:24:21;15.97;;;9.73;;
7211;SDS011;3647;48.792;9.802;2024-03-06T10:26:49;15.93;;;10.03;;
7211;SDS011;3647;48.792;9.802;2024-03-06T10:29:21;15.57;;;9.57;;
7211;SDS011;3647;48.792;9.802;2024-03-06T10:31:52;13.57;;;9.30;;
7211;SDS011;3647;48.792;9.802;2024-03-06T10:34:26;16.50;;;10.83;;
7211;SDS011;3647;48.792;9.802;2024-03-06T10:36:57;14.37;;;9.40;;
7211;SDS011;3647;48.792;9.802;2024-03-06T10:39:35;13.43;;;9.13;;
7211;SDS011;3647;48.792;9.802;2024-03-06T10:42:13;14.97;;;9.80;;
7211;SDS011;3647;48.792;9.802;2024-03-06T10:44:44;16.27;;;10.27;;
7211;SDS011;3647;48.792;9.802;2024-03-06T10:47:19;15.67;;;9.57;;
7211;SDS011;3647;48.792;9.802;2024-03-06T10:49:46;13.30;;;9.10;;
7211;SDS011;3647;48.792;9.802;2024-03-06T10:52:14;19.30;;;9.67;;
7211;SDS011;3647;48.792;9.802;2024-03-06T10:54:43;17.47;;;9.27;;
7211;SDS011;3647;48.792;9.802;2024-03-06T10:57:11;16.30;;;9.50;;
7211;SDS011;3647;48.792;9.802;2024-03-06T10:59:40;14.23;;;10.17;;
7211;SDS011;3647;48.792;9.802;2024-03-06T11:02:08;17.00;;;9.10;;
7211;SDS011;3647;48.792;9.802;2024-03-06T11:04:39;13.23;;;9.20;;
7211;SDS011;3647;48.792;9.802;2024-03-06T11:07:07;13.73;;;9.13;;
7211;SDS011;3647;48.792;9.802;2024-03-06T11:09:35;13.23;;;9.27;;
7211;SDS011;3647;48.792;9.802;2024-03-06T11:12:04;36.07;;;21.60;;
7211;SDS011;3647;48.792;9.802;2024-03-06T11:14:33;23.93;;;14.53;;
7211;SDS011;3647;48.792;9.802;2024-03-06T11:17:03;22.80;;;14.70;;
7211;SDS011;3647;48.792;9.802;2024-03-06T11:19:32;17.60;;;11.17;;
7211;SDS011;3647;48.792;9.802;2024-03-06T11:22:26;13.70;;;9.90;;
7211;SDS011;3647;48.792;9.802;2024-03-06T11:28:29;14.50;;;8.83;;
7211;SDS011;3647;48.792;9.802;2024-03-06T11:30:57;12.40;;;8.57;;
7211;SDS011;3647;48.792;9.802;2024-03-06T11:33:28;11.90;;;8.73;;
7211;SDS011;3647;48.792;9.802;2024-03-06T11:36:14;14.87;;;9.33;;
7211;SDS011;3647;48.792;9.802;2024-03-06T11:38:53;13.27;;;9.03;;
7211;SDS011;3647;48.792;9.802;2024-03-06T11:41:24;14.07;;;8.90;;
7211;SDS011;3647;48.792;9.802;2024-03-06T11:43:52;12.30;;;8.60;;
7211;SDS011;3647;48.792;9.802;2024-03-06T11:46:20;13.17;;;8.57;;
7211;SDS011;3647;48.792;9.802;2024-03-06T11:48:51;13.50;;;7.80;;
7211;SDS011;3647;48.792;9.802;2024-03-06T11:51:20;13.93;;;8.80;;
7211;SDS011;3647;48.792;9.802;2024-03-06T11:53:49;16.00;;;9.37;;
7211;SDS011;3647;48.792;9.802;2024-03-06T11:56:18;13.40;;;9.03;;
7211;SDS011;3647;48.792;9.802;2024-03-06T11:58:46;16.20;;;9.13;;
7211;SDS011;3647;48.792;9.802;2024-03-06T12:01:13;14.23;;;9.37;;
7211;SDS011;3647;48.792;9.802;2024-03-06T12:03:41;15.63;;;10.33;;
7211;SDS011;3647;48.792;9.802;2024-03-06T12:06:09;14.67;;;9.73;;
7211;SDS011;3647;48.792;9.802;2024-03-06T12:08:36;13.83;;;9.77;;
7211;SDS011;3647;48.792;9.802;2024-03-06T12:11:04;13.97;;;9.33;;
7211;SDS011;3647;48.792;9.802;2024-03-06T12:13:34;12.73;;;8.97;;
7211;SDS011;3647;48.792;9.802;2024-03-06T12:16:05;14.47;;;9.40;;
7211;SDS011;3647;48.792;9.802;2024-03-06T12:18:32;11.93;;;8.53;;
7211;SDS011;3647;48.792;9.802;2024-03-06T12:21:00;14.50;;;9.00;;
7211;SDS011;3647;48.792;9.802;2024-03-06T12:23:27;15.47;;;9.37;;
7211;SDS011;3647;48.792;9.802;2024-03-06T12:26:02;12.83;;;8.07;;
7211;SDS011;3647;48.792;9.802;2024-03-06T12:28:30;13.53;;;8.50;;
7211;SDS011;3647;48.792;9.802;2024-03-06T12:30:58;14.43;;;8.80;;
7211;SDS011;3647;48.792;9.802;2024-03-06T12:33:28;14.47;;;8.93;;
7211;SDS011;3647;48.792;9.802;2024-03-06T12:36:02;12.33;;;8.47;;
7211;SDS011;3647;48.792;9.802;2024-03-06T12:38:31;16.40;;;9.93;;
7211;SDS011;3647;48.792;9.802;2024-03-06T12:40:58;17.23;;;10.10;;
7211;SDS011;3647;48.792;9.802;2024-03-06T12:43:26;14.40;;;9.17;;
7211;SDS011;3647;48.792;9.802;2024-03-06T12:45:53;16.70;;;8.80;;
7211;SDS011;3647;48.792;9.802;2024-03-06T12:48:23;13.13;;;9.10;;
7211;SDS011;3647;48.792;9.802;2024-03-06T12:50:55;16.53;;;9.17;;
7211;SDS011;3647;48.792;9.802;2024-03-06T12:53:29;15.17;;;9.97;;
7211;SDS011;3647;48.792;9.802;2024-03-06T12:55:58;17.17;;;9.73;;
7211;SDS011;3647;48.792;9.802;2024-03-06T12:58:24;15.07;;;9.93;;
7211;SDS011;3647;48.792;9.802;2024-03-06T13:00:51;13.97;;;9.60;;
7211;SDS011;3647;48.792;9.802;2024-03-06T13:03:19;19.53;;;9.90;;
7211;SDS011;3647;48.792;9.802;2024-03-06T13:05:48;17.50;;;9.50;;
7211;SDS011;3647;48.792;9.802;2024-03-06T13:08:15;15.43;;;10.73;;
7211;SDS011;3647;48.792;9.802;2024-03-06T13:10:42;16.57;;;9.63;;
7211;SDS011;3647;48.792;9.802;2024-03-06T13:13:10;22.00;;;11.10;;
7211;SDS011;3647;48.792;9.802;2024-03-06T13:15:37;15.87;;;9.97;;
7211;SDS011;3647;48.792;9.802;2024-03-06T13:18:04;19.90;;;11.00;;
7211;SDS011;3647;48.792;9.802;2024-03-06T13:20:32;19.37;;;11.03;;
7211;SDS011;3647;48.792;9.802;2024-03-06T13:23:00;20.87;;;13.00;;
7211;SDS011;3647;48.792;9.802;2024-03-06T13:25:28;26.23;;;14.03;;
7211;SDS011;3647;48.792;9.802;2024-03-06T13:27:56;19.80;;;13.20;;
7211;SDS011;3647;48.792;9.802;2024-03-06T13:30:24;21.60;;;12.50;;
7211;SDS011;3647;48.792;9.802;2024-03-06T13:32:51;20.57;;;10.63;;
7211;SDS011;3647;48.792;9.802;2024-03-06T13:35:19;22.20;;;12.20;;
7211;SDS011;3647;48.792;9.802;2024-03-06T13:37:46;20.37;;;12.27;;
7211;SDS011;3647;48.792;9.802;2024-03-06T13:40:15;16.80;;;9.90;;
7211;SDS011;3647;48.792;9.802;2024-03-06T13:42:42;20.50;;;12.70;;
7211;SDS011;3647;48.792;9.802;2024-03-06T13:45:10;19.83;;;12.93;;
7211;SDS011;3647;48.792;9.802;2024-03-06T13:47:37;18.40;;;12.00;;
7211;SDS011;3647;48.792;9.802;2024-03-06T13:50:06;16.03;;;10.23;;
7211;SDS011;3647;48.792;9.802;2024-03-06T13:52:34;21.97;;;12.30;;
7211;SDS011;3647;48.792;9.802;2024-03-06T13:55:01;39.73;;;24.70;;
7211;SDS011;3647;48.792;9.802;2024-03-06T13:57:31;20.30;;;12.77;;
7211;SDS011;3647;48.792;9.802;2024-03-06T13:59:59;20.57;;;10.67;;
7211;SDS011;3647;48.792;9.802;2024-03-06T14:02:26;22.47;;;12.80;;
7211;SDS011;3647;48.792;9.802;2024-03-06T14:04:53;22.07;;;12.37;;
7211;SDS011;3647;48.792;9.802;2024-03-06T14:07:20;21.80;;;12.03;;
7211;SDS011;3647;48.792;9.802;2024-03-06T14:09:48;18.67;;;11.33;;
7211;SDS011;3647;48.792;9.802;2024-03-06T14:12:15;21.40;;;12.27;;
7211;SDS011;3647;48.792;9.802;2024-03-06T14:14:44;20.20;;;11.37;;
7211;SDS011;3647;48.792;9.802;2024-03-06T14:17:11;21.60;;;12.33;;
7211;SDS011;3647;48.792;9.802;2024-03-06T14:19:38;25.93;;;15.17;;
7211;SDS011;3647;48.792;9.802;2024-03-06T14:22:06;21.87;;;11.70;;
7211;SDS011;3647;48.792;9.802;2024-03-06T14:24:33;20.53;;;12.13;;
7211;SDS011;3647;48.792;9.802;2024-03-06T14:27:01;26.10;;;12.80;;
7211;SDS011;3647;48.792;9.802;2024-03-06T14:29:29;23.87;;;12.80;;
7211;SDS011;3647;48.792;9.802;2024-03-06T14:31:57;22.20;;;13.00;;
7211;SDS011;3647;48.792;9.802;2024-03-06T14:34:24;24.90;;;12.73;;
7211;SDS011;3647;48.792;9.802;2024-03-06T14:36:51;21.97;;;13.33;;
7211;SDS011;3647;48.792;9.802;2024-03-06T14:39:18;18.60;;;13.43;;
7211;SDS011;3647;48.792;9.802;2024-03-06T14:41:47;24.13;;;13.30;;
7211;SDS011;3647;48.792;9.802;2024-03-06T14:44:14;24.97;;;12.27;;
7211;SDS011;3647;48.792;9.802;2024-03-06T14:46:41;21.07;;;11.43;;
7211;SDS011;3647;48.792;9.802;2024-03-06T14:49:09;27.13;;;12.53;;
7211;SDS011;3647;48.792;9.802;2024-03-06T14:51:36;21.10;;;11.53;;
7211;SDS011;3647;48.792;9.802;2024-03-06T14:54:03;21.37;;;12.53;;
7211;SDS011;3647;48.792;9.802;2024-03-06T14:56:30;22.37;;;11.60;;
7211;SDS011;3647;48.792;9.802;2024-03-06T14:58:57;26.67;;;12.03;;
7211;SDS011;3647;48.792;9.802;2024-03-06T15:01:24;22.57;;;12.03;;
7211;SDS011;3647;48.792;9.802;2024-03-06T15:03:51;22.60;;;12.40;;
7211;SDS011;3647;48.792;9.802;2024-03-06T15:06:20;22.47;;;12.40;;
7211;SDS011;3647;48.792;9.802;2024-03-06T15:08:47;22.23;;;11.47;;
7211;SDS011;3647;48.792;9.802;2024-03-06T15:11:14;23.57;;;11.53;;
7211;SDS011;3647;48.792;9.802;2024-03-06T15:13:41;25.87;;;13.30;;
7211;SDS011;3647;48.792;9.802;2024-03-06T15:16:08;23.20;;;12.07;;
7211;SDS011;3647;48.792;9.802;2024-03-06T15:18:35;23.60;;;13.90;;
7211;SDS011;3647;48.792;9.802;2024-03-06T15:21:02;23.00;;;12.00;;
7211;SDS011;3647;48.792;9.802;2024-03-06T15:23:31;25.43;;;13.10;;
7211;SDS011;3647;48.792;9.802;2024-03-06T15:25:58;24.83;;;12.97;;
7211;SDS011;3647;48.792;9.802;2024-03-06T15:28:23;26.37;;;13.57;;
7211;SDS011;3647;48.792;9.802;2024-03-06T15:30:50;24.00;;;13.30;;
7211;SDS011;3647;48.792;9.802;2024-03-06T15:33:18;26.57;;;14.53;;
7211;SDS011;3647;48.792;9.802;2024-03-06T15:35:45;20.87;;;11.70;;
7211;SDS011;3647;48.792;9.802;2024-03-06T15:38:12;22.70;;;12.63;;
7211;SDS011;3647;48.792;9.802;2024-03-06T15:40:40;21.27;;;12.90;;
7211;SDS011;3647;48.792;9.802;2024-03-06T15:43:07;26.73;;;12.63;;
7211;SDS011;3647;48.792;9.802;2024-03-06T15:45:34;24.07;;;13.93;;
7211;SDS011;3647;48.792;9.802;2024-03-06T15:48:01;27.50;;;13.37;;
7211;SDS011;3647;48.792;9.802;2024-03-06T15:50:28;26.73;;;14.47;;
7211;SDS011;3647;48.792;9.802;2024-03-06T15:52:55;24.93;;;15.13;;
7211;SDS011;3647;48.792;9.802;2024-03-06T15:55:22;27.53;;;15.33;;
7211;SDS011;3647;48.792;9.802;2024-03-06T15:57:50;39.23;;;22.63;;
7211;SDS011;3647;48.792;9.802;2024-03-06T16:00:18;29.70;;;15.17;;
7211;SDS011;3647;48.792;9.802;2024-03-06T16:02:45;24.67;;;13.90;;
7211;SDS011;3647;48.792;9.802;2024-03-06T16:05:12;22.90;;;12.80;;
7211;SDS011;3647;48.792;9.802;2024-03-06T16:07:39;24.13;;;13.77;;
7211;SDS011;3647;48.792;9.802;2024-03-06T16:10:06;44.50;;;26.60;;
7211;SDS011;3647;48.792;9.802;2024-03-06T16:12:34;25.63;;;13.40;;
7211;SDS011;3647;48.792;9.802;2024-03-06T16:15:02;24.73;;;13.80;;
7211;SDS011;3647;48.792;9.802;2024-03-06T16:17:30;22.03;;;12.57;;
7211;SDS011;3647;48.792;9.802;2024-03-06T16:19:59;22.50;;;12.30;;
7211;SDS011;3647;48.792;9.802;2024-03-06T16:22:29;23.77;;;12.33;;
7211;SDS011;3647;48.792;9.802;2024-03-06T16:24:56;22.27;;;11.67;;
7211;SDS011;3647;48.792;9.802;2024-03-06T16:27:23;25.87;;;14.97;;
7211;SDS011;3647;48.792;9.802;2024-03-06T16:29:50;23.07;;;13.23;;
7211;SDS011;3647;48.792;9.802;2024-03-06T16:32:18;26.73;;;12.30;;
7211;SDS011;3647;48.792;9.802;2024-03-06T16:34:45;21.67;;;12.53;;
7211;SDS011;3647;48.792;9.802;2024-03-06T16:37:12;23.03;;;13.00;;
7211;SDS011;3647;48.792;9.802;2024-03-06T16:39:39;21.17;;;12.60;;
7211;SDS011;3647;48.792;9.802;2024-03-06T16:42:06;23.90;;;12.47;;
7211;SDS011;3647;48.792;9.802;2024-03-06T16:44:33;26.83;;;12.40;;
7211;SDS011;3647;48.792;9.802;2024-03-06T16:47:00;24.20;;;13.00;;
7211;SDS011;3647;48.792;9.802;2024-03-06T16:49:28;22.80;;;14.40;;
7211;SDS011;3647;48.792;9.802;2024-03-06T16:51:55;24.70;;;13.33;;
7211;SDS011;3647;48.792;9.802;2024-03-06T16:54:22;23.70;;;12.47;;
7211;SDS011;3647;48.792;9.802;2024-03-06T16:56:49;26.90;;;14.27;;
7211;SDS011;3647;48.792;9.802;2024-03-06T16:59:16;23.90;;;12.77;;
7211;SDS011;3647;48.792;9.802;2024-03-06T17:01:43;22.83;;;13.27;;
7211;SDS011;3647;48.792;9.802;2024-03-06T17:04:10;21.93;;;13.60;;
7211;SDS011;3647;48.792;9.802;2024-03-06T17:06:38;25.47;;;13.63;;
7211;SDS011;3647;48.792;9.802;2024-03-06T17:09:05;27.73;;;12.97;;
7211;SDS011;3647;48.792;9.802;2024-03-06T17:11:33;23.07;;;13.20;;
7211;SDS011;3647;48.792;9.802;2024-03-06T17:14:00;26.30;;;12.70;;
7211;SDS011;3647;48.792;9.802;2024-03-06T17:16:26;28.40;;;14.33;;
7211;SDS011;3647;48.792;9.802;2024-03-06T17:18:53;27.00;;;12.60;;
7211;SDS011;3647;48.792;9.802;2024-03-06T17:21:19;23.23;;;12.87;;
7211;SDS011;3647;48.792;9.802;2024-03-06T17:23:48;25.63;;;13.20;;
7211;SDS011;3647;48.792;9.802;2024-03-06T17:26:17;25.33;;;12.87;;
7211;SDS011;3647;48.792;9.802;2024-03-06T17:28:43;24.87;;;13.70;;
7211;SDS011;3647;48.792;9.802;2024-03-06T17:31:11;23.97;;;13.87;;
7211;SDS011;3647;48.792;9.802;2024-03-06T17:33:38;21.97;;;12.57;;
7211;SDS011;3647;48.792;9.802;2024-03-06T17:36:05;23.50;;;12.67;;
7211;SDS011;3647;48.792;9.802;2024-03-06T17:38:33;24.47;;;12.10;;
7211;SDS011;3647;48.792;9.802;2024-03-06T17:41:02;27.40;;;15.03;;
7211;SDS011;3647;48.792;9.802;2024-03-06T17:43:28;26.47;;;14.30;;
7211;SDS011;3647;48.792;9.802;2024-03-06T17:45:55;27.77;;;15.40;;
7211;SDS011;3647;48.792;9.802;2024-03-06T17:48:22;27.00;;;15.27;;
7211;SDS011;3647;48.792;9.802;2024-03-06T17:50:49;25.10;;;13.87;;
7211;SDS011;3647;48.792;9.802;2024-03-06T17:53:16;23.37;;;12.83;;
7211;SDS011;3647;48.792;9.802;2024-03-06T17:55:43;26.40;;;12.87;;
7211;SDS011;3647;48.792;9.802;2024-03-06T17:58:11;22.90;;;13.20;;
7211;SDS011;3647;48.792;9.802;2024-03-06T18:00:38;22.33;;;13.10;;
7211;SDS011;3647;48.792;9.802;2024-03-06T18:03:05;25.97;;;13.33;;
7211;SDS011;3647;48.792;9.802;2024-03-06T18:05:33;32.67;;;16.77;;
7211;SDS011;3647;48.792;9.802;2024-03-06T18:08:00;28.30;;;14.57;;
7211;SDS011;3647;48.792;9.802;2024-03-06T18:10:27;23.70;;;14.07;;
7211;SDS011;3647;48.792;9.802;2024-03-06T18:12:54;27.00;;;14.57;;
7211;SDS011;3647;48.792;9.802;2024-03-06T18:15:23;26.80;;;14.37;;
7211;SDS011;3647;48.792;9.802;2024-03-06T18:17:50;28.37;;;14.23;;
7211;SDS011;3647;48.792;9.802;2024-03-06T18:20:17;24.60;;;13.77;;
7211;SDS011;3647;48.792;9.802;2024-03-06T18:22:45;26.43;;;14.77;;
7211;SDS011;3647;48.792;9.802;2024-03-06T18:25:13;21.90;;;14.03;;
7211;SDS011;3647;48.792;9.802;2024-03-06T18:27:39;26.23;;;13.97;;
7211;SDS011;3647;48.792;9.802;2024-03-06T18:30:08;25.03;;;14.73;;
7211;SDS011;3647;48.792;9.802;2024-03-06T18:32:37;26.43;;;13.80;;
7211;SDS011;3647;48.792;9.802;2024-03-06T18:35:04;24.63;;;13.73;;
7211;SDS011;3647;48.792;9.802;2024-03-06T18:37:32;23.07;;;12.27;;
7211;SDS011;3647;48.792;9.802;2024-03-06T18:39:59;22.77;;;12.50;;
7211;SDS011;3647;48.792;9.802;2024-03-06T18:42:26;23.03;;;13.00;;
7211;SDS011;3647;48.792;9.802;2024-03-06T18:44:53;21.33;;;13.17;;
7211;SDS011;3647;48.792;9.802;2024-03-06T18:47:20;24.27;;;12.53;;
7211;SDS011;3647;48.792;9.802;2024-03-06T18:49:49;23.33;;;12.27;;
7211;SDS011;3647;48.792;9.802;2024-03-06T18:52:16;24.33;;;12.77;;
7211;SDS011;3647;48.792;9.802;2024-03-06T18:54:43;25.03;;;13.57;;
7211;SDS011;3647;48.792;9.802;2024-03-06T18:57:10;20.63;;;11.67;;
7211;SDS011;3647;48.792;9.802;2024-03-06T18:59:37;24.93;;;12.63;;
7211;SDS011;3647;48.792;9.802;2024-03-06T19:02:05;22.30;;;12.57;;
7211;SDS011;3647;48.792;9.802;2024-03-06T19:04:32;21.57;;;12.93;;
7211;SDS011;3647;48.792;9.802;2024-03-06T19:07:03;25.23;;;13.70;;
7211;SDS011;3647;48.792;9.802;2024-03-06T19:09:30;23.40;;;12.07;;
7211;SDS011;3647;48.792;9.802;2024-03-06T19:11:57;27.97;;;12.67;;
7211;SDS011;3647;48.792;9.802;2024-03-06T19:14:24;22.57;;;12.70;;
7211;SDS011;3647;48.792;9.802;2024-03-06T19:16:51;20.87;;;12.77;;
7211;SDS011;3647;48.792;9.802;2024-03-06T19:19:17;23.50;;;13.10;;
7211;SDS011;3647;48.792;9.802;2024-03-06T19:21:45;26.73;;;13.53;;
7211;SDS011;3647;48.792;9.802;2024-03-06T19:24:16;23.50;;;13.50;;
7211;SDS011;3647;48.792;9.802;2024-03-06T19:26:45;27.07;;;13.83;;
7211;SDS011;3647;48.792;9.802;2024-03-06T19:29:12;21.73;;;13.23;;
7211;SDS011;3647;48.792;9.802;2024-03-06T19:31:39;25.33;;;13.20;;
7211;SDS011;3647;48.792;9.802;2024-03-06T19:34:06;29.07;;;14.83;;
7211;SDS011;3647;48.792;9.802;2024-03-06T19:36:34;22.03;;;13.50;;
7211;SDS011;3647;48.792;9.802;2024-03-06T19:39:01;22.07;;;13.07;;
7211;SDS011;3647;48.792;9.802;2024-03-06T19:41:35;22.63;;;14.23;;
7211;SDS011;3647;48.792;9.802;2024-03-06T19:44:02;25.87;;;14.20;;
7211;SDS011;3647;48.792;9.802;2024-03-06T19:46:29;23.43;;;13.70;;
7211;SDS011;3647;48.792;9.802;2024-03-06T19:48:56;27.47;;;13.87;;
7211;SDS011;3647;48.792;9.802;2024-03-06T19:51:23;24.03;;;12.77;;
7211;SDS011;3647;48.792;9.802;2024-03-06T19:53:52;22.00;;;12.27;;
7211;SDS011;3647;48.792;9.802;2024-03-06T19:56:20;27.07;;;14.63;;
7211;SDS011;3647;48.792;9.802;2024-03-06T19:58:50;27.83;;;14.13;;
7211;SDS011;3647;48.792;9.802;2024-03-06T20:01:17;26.90;;;13.73;;
7211;SDS011;3647;48.792;9.802;2024-03-06T20:03:44;25.13;;;13.73;;
7211;SDS011;3647;48.792;9.802;2024-03-06T20:06:10;24.80;;;14.43;;
7211;SDS011;3647;48.792;9.802;2024-03-06T20:08:37;26.70;;;13.60;;
7211;SDS011;3647;48.792;9.802;2024-03-06T20:11:04;23.50;;;13.23;;
7211;SDS011;3647;48.792;9.802;2024-03-06T20:13:32;24.67;;;13.23;;
7211;SDS011;3647;48.792;9.802;2024-03-06T20:16:00;23.70;;;14.60;;
7211;SDS011;3647;48.792;9.802;2024-03-06T20:18:27;23.73;;;14.13;;
7211;SDS011;3647;48.792;9.802;2024-03-06T20:20:54;22.80;;;13.07;;
7211;SDS011;3647;48.792;9.802;2024-03-06T20:23:21;27.80;;;14.03;;
7211;SDS011;3647;48.792;9.802;2024-03-06T20:25:49;26.97;;;15.17;;
7211;SDS011;3647;48.792;9.802;2024-03-06T20:28:16;28.33;;;14.60;;
7211;SDS011;3647;48.792;9.802;2024-03-06T20:30:43;26.53;;;14.83;;
7211;SDS011;3647;48.792;9.802;2024-03-06T20:33:13;23.33;;;13.97;;
7211;SDS011;3647;48.792;9.802;2024-03-06T20:35:40;30.17;;;15.67;;
7211;SDS011;3647;48.792;9.802;2024-03-06T20:38:07;27.40;;;14.93;;
7211;SDS011;3647;48.792;9.802;2024-03-06T20:40:36;26.07;;;14.40;;
7211;SDS011;3647;48.792;9.802;2024-03-06T20:43:05;23.27;;;13.13;;
7211;SDS011;3647;48.792;9.802;2024-03-06T20:45:32;30.37;;;14.80;;
7211;SDS011;3647;48.792;9.802;2024-03-06T20:48:04;28.57;;;14.37;;
7211;SDS011;3647;48.792;9.802;2024-03-06T20:50:33;27.53;;;14.30;;
7211;SDS011;3647;48.792;9.802;2024-03-06T20:53:01;27.53;;;13.50;;
7211;SDS011;3647;48.792;9.802;2024-03-06T20:55:28;21.73;;;13.47;;
7211;SDS011;3647;48.792;9.802;2024-03-06T20:57:55;25.23;;;14.27;;
7211;SDS011;3647;48.792;9.802;2024-03-06T21:00:22;26.00;;;14.23;;
7211;SDS011;3647;48.792;9.802;2024-03-06T21:02:49;29.80;;;15.70;;
7211;SDS011;3647;48.792;9.802;2024-03-06T21:05:16;31.27;;;14.87;;
7211;SDS011;3647;48.792;9.802;2024-03-06T21:07:45;28.17;;;16.50;;
7211;SDS011;3647;48.792;9.802;2024-03-06T21:10:13;32.17;;;16.47;;
7211;SDS011;3647;48.792;9.802;2024-03-06T21:12:40;29.73;;;15.00;;
7211;SDS011;3647;48.792;9.802;2024-03-06T21:15:08;29.60;;;15.50;;
7211;SDS011;3647;48.792;9.802;2024-03-06T21:17:37;27.67;;;14.93;;
7211;SDS011;3647;48.792;9.802;2024-03-06T21:20:05;30.40;;;15.30;;
7211;SDS011;3647;48.792;9.802;2024-03-06T21:22:36;28.50;;;14.93;;
7211;SDS011;3647;48.792;9.802;2024-03-06T21:25:06;26.70;;;14.63;;
7211;SDS011;3647;48.792;9.802;2024-03-06T21:27:33;26.10;;;13.53;;
7211;SDS011;3647;48.792;9.802;2024-03-06T21:30:01;25.30;;;15.73;;
7211;SDS011;3647;48.792;9.802;2024-03-06T21:32:28;29.17;;;14.53;;
7211;SDS011;3647;48.792;9.802;2024-03-06T21:34:55;32.10;;;15.60;;
7211;SDS011;3647;48.792;9.802;2024-03-06T21:37:23;26.03;;;13.53;;
7211;SDS011;3647;48.792;9.802;2024-03-06T21:39:50;31.70;;;15.70;;
7211;SDS011;3647;48.792;9.802;2024-03-06T21:42:18;32.50;;;15.07;;
7211;SDS011;3647;48.792;9.802;2024-03-06T21:44:45;28.07;;;14.67;;
7211;SDS011;3647;48.792;9.802;2024-03-06T21:47:12;34.13;;;15.87;;